Time,TemperatureF,DewpointF,PressureIn,WindDirection,WindDirectionDegrees,WindSpeedMPH,WindSpeedGustMPH,Humidity,HourlyPrecipIn,Conditions,Clouds,dailyrainin,SoftwareType,DateUTC
2013-06-04 00:01:00,57.8,48.5,29.84,NE,41,1.2,1.2,71,0.00,CLR,,0.77,WeatherDisplay:10.37,2013-06-04 04:01:00,
2013-06-04 00:02:00,57.6,48.3,29.85,NE,41,0.5,5.0,71,0.00,CLR,,0.00,WeatherDisplay:10.37,2013-06-04 04:02:00,
2013-06-04 00:07:00,57.5,47.8,29.84,NNE,27,2.3,3.5,70,0.00,CLR,,0.00,WeatherDisplay:10.37,2013-06-04 04:07:00,
2013-06-04 00:12:00,57.3,48.0,29.84,NNW,344,0.3,1.1,71,0.00,CLR,,0.00,WeatherDisplay:10.37,2013-06-04 04:12:00,
2013-06-04 00:18:00,57.0,47.7,29.85,NE,55,0.0,2.3,71,0.00,CLR,,0.00,WeatherDisplay:10.37,2013-06-04 04:18:00,
2013-06-04 00:23:00,56.9,47.6,29.85,NNE,26,1.6,3.5,71,0.00,CLR,,0.00,WeatherDisplay:10.37,2013-06-04 04:23:00,
2013-06-04 00:28:00,56.6,47.3,29.85,NNE,30,0.7,2.0,71,0.00,CLR,,0.00,WeatherDisplay:10.37,2013-06-04 04:28:00,
2013-06-04 00:33:00,56.5,47.2,29.85,NNE,30,0.1,1.1,71,0.00,CLR,,0.00,WeatherDisplay:10.37,2013-06-04 04:33:00,
2013-06-04 00:38:00,56.2,47.3,29.85,NNE,30,0.2,1.1,72,0.00,CLR,,0.00,WeatherDisplay:10.37,2013-06-04 04:38:00,
2013-06-04 00:44:00,55.9,47.0,29.86,NE,34,0.7,2.3,72,0.00,CLR,,0.00,WeatherDisplay:10.37,2013-06-04 04:44:00,
2013-06-04 00:49:00,55.6,46.3,29.86,NE,34,1.0,3.0,71,0.00,CLR,,0.00,WeatherDisplay:10.37,2013-06-04 04:49:00,
2013-06-04 00:54:00,55.4,46.2,29.86,NE,34,0.0,0.0,71,0.00,CLR,,0.00,WeatherDisplay:10.37,2013-06-04 04:54:00,
2013-06-04 00:59:00,55.3,46.1,29.86,NE,35,0.3,1.1,71,0.00,CLR,,0.00,WeatherDisplay:10.37,2013-06-04 04:59:00,
2013-06-04 01:04:00,55.0,46.5,29.86,NE,35,0.1,1.1,73,0.00,CLR,,0.00,WeatherDisplay:10.37,2013-06-04 05:04:00,
2013-06-04 01:09:00,54.8,46.7,29.86,NE,38,0.1,2.3,74,0.00,CLR,,0.00,WeatherDisplay:10.37,2013-06-04 05:09:00,
2013-06-04 01:14:00,54.7,45.5,29.86,ENE,60,0.6,1.1,71,0.00,CLR,,0.00,WeatherDisplay:10.37,2013-06-04 05:14:00,
2013-06-04 01:20:00,54.5,45.3,29.86,NE,55,0.0,0.0,71,0.00,CLR,,0.00,WeatherDisplay:10.37,2013-06-04 05:20:00,
2013-06-04 01:25:00,54.4,45.2,29.87,NE,55,0.2,1.1,71,0.00,CLR,,0.00,WeatherDisplay:10.37,2013-06-04 05:25:00,
2013-06-04 01:30:00,54.2,45.4,29.87,NE,40,0.0,0.0,72,0.00,CLR,,0.00,WeatherDisplay:10.37,2013-06-04 05:30:00,
2013-06-04 01:35:00,54.1,45.3,29.87,NE,51,0.6,2.3,72,0.00,CLR,,0.00,WeatherDisplay:10.37,2013-06-04 05:35:00,
2013-06-04 01:40:00,53.9,45.1,29.87,NE,40,3.4,5.8,72,0.00,CLR,,0.00,WeatherDisplay:10.37,2013-06-04 05:40:00,
2013-06-04 01:46:00,53.8,44.6,29.87,NE,56,2.7,3.5,71,0.00,CLR,,0.00,WeatherDisplay:10.37,2013-06-04 05:46:00,
2013-06-04 01:51:00,53.8,44.6,29.87,NE,46,1.4,3.5,71,0.00,CLR,,0.00,WeatherDisplay:10.37,2013-06-04 05:51:00,
2013-06-04 01:56:00,53.8,44.6,29.87,NE,44,0.0,0.0,71,0.00,CLR,,0.00,WeatherDisplay:10.37,2013-06-04 05:56:00,
2013-06-04 02:01:00,53.6,44.4,29.87,ENE,61,0.9,3.5,71,0.00,CLR,,0.00,WeatherDisplay:10.37,2013-06-04 06:01:00,
2013-06-04 02:06:00,53.6,44.4,29.87,NNE,26,0.1,1.1,71,0.00,CLR,,0.00,WeatherDisplay:10.37,2013-06-04 06:06:00,
2013-06-04 02:12:00,53.5,44.3,29.87,NNE,26,0.0,0.0,71,0.00,CLR,,0.00,WeatherDisplay:10.37,2013-06-04 06:12:00,
2013-06-04 02:17:00,53.3,44.1,29.87,NNE,26,0.4,4.0,71,0.00,CLR,,0.00,WeatherDisplay:10.37,2013-06-04 06:17:00,
2013-06-04 02:22:00,53.2,44.0,29.87,NE,39,1.5,1.5,71,0.00,CLR,,0.00,WeatherDisplay:10.37,2013-06-04 06:22:00,
2013-06-04 02:27:00,53.1,43.9,29.87,NE,42,1.0,3.5,71,0.00,CLR,,0.00,WeatherDisplay:10.37,2013-06-04 06:27:00,
2013-06-04 02:32:00,53.2,43.7,29.87,NE,40,0.2,3.5,70,0.00,CLR,,0.00,WeatherDisplay:10.37,2013-06-04 06:32:00,
2013-06-04 02:37:00,53.2,43.7,29.87,NE,34,0.6,3.5,70,0.00,CLR,,0.00,WeatherDisplay:10.37,2013-06-04 06:37:00,
2013-06-04 02:43:00,53.2,43.7,29.87,NE,54,0.8,3.5,70,0.00,CLR,,0.00,WeatherDisplay:10.37,2013-06-04 06:43:00,
2013-06-04 02:48:00,53.1,43.6,29.87,NNE,33,0.9,3.5,70,0.00,CLR,,0.00,WeatherDisplay:10.37,2013-06-04 06:48:00,
2013-06-04 02:53:00,53.1,43.6,29.87,NE,46,0.7,2.3,70,0.00,CLR,,0.00,WeatherDisplay:10.37,2013-06-04 06:53:00,
2013-06-04 02:58:00,53.1,43.6,29.87,NE,46,0.0,1.1,70,0.00,CLR,,0.00,WeatherDisplay:10.37,2013-06-04 06:58:00,
2013-06-04 03:04:00,53.1,43.9,29.87,NNE,33,1.3,3.5,71,0.00,CLR,,0.00,WeatherDisplay:10.37,2013-06-04 07:04:00,
2013-06-04 03:09:00,52.9,43.7,29.87,North,355,0.5,3.5,71,0.00,CLR,,0.00,WeatherDisplay:10.37,2013-06-04 07:09:00,
2013-06-04 03:14:00,52.9,43.7,29.87,NE,40,0.6,1.0,71,0.00,CLR,,0.00,WeatherDisplay:10.37,2013-06-04 07:14:00,
2013-06-04 03:19:00,52.8,43.7,29.87,NE,40,0.0,0.0,71,0.00,CLR,,0.00,WeatherDisplay:10.37,2013-06-04 07:19:00,
2013-06-04 03:24:00,52.6,43.5,29.87,NE,40,0.0,0.0,71,0.00,CLR,,0.00,WeatherDisplay:10.37,2013-06-04 07:24:00,
2013-06-04 03:29:00,52.6,43.8,29.87,NE,40,0.0,0.0,72,0.00,CLR,,0.00,WeatherDisplay:10.37,2013-06-04 07:29:00,
2013-06-04 03:34:00,52.5,44.1,29.87,NW,325,0.0,0.0,73,0.00,CLR,,0.00,WeatherDisplay:10.37,2013-06-04 07:34:00,
2013-06-04 03:40:00,52.2,44.9,29.87,NW,325,0.0,0.0,76,0.00,CLR,,0.00,WeatherDisplay:10.37,2013-06-04 07:40:00,
2013-06-04 03:45:00,51.7,44.7,29.88,NW,325,0.0,0.0,77,0.00,CLR,,0.00,WeatherDisplay:10.37,2013-06-04 07:45:00,
2013-06-04 03:50:00,51.3,44.7,29.88,NW,324,0.0,0.0,78,0.00,CLR,,0.00,WeatherDisplay:10.37,2013-06-04 07:50:00,
2013-06-04 03:55:00,50.8,44.5,29.88,NW,324,0.0,0.0,79,0.00,CLR,,0.00,WeatherDisplay:10.37,2013-06-04 07:55:00,
2013-06-04 04:00:00,50.4,44.5,29.89,NW,324,0.0,0.0,80,0.00,CLR,,0.00,WeatherDisplay:10.37,2013-06-04 08:00:00,
2013-06-04 04:05:00,49.9,44.0,29.89,NW,324,0.0,0.0,80,0.00,CLR,,0.00,WeatherDisplay:10.37,2013-06-04 08:05:00,
2013-06-04 04:11:00,49.6,44.3,29.89,NW,325,0.0,0.0,82,0.00,CLR,,0.00,WeatherDisplay:10.37,2013-06-04 08:11:00,
2013-06-04 04:16:00,49.4,44.8,29.89,NW,324,0.0,0.0,84,0.00,CLR,,0.00,WeatherDisplay:10.37,2013-06-04 08:16:00,
2013-06-04 04:21:00,49.4,45.1,29.89,NW,324,0.0,0.0,85,0.00,CLR,,0.00,WeatherDisplay:10.37,2013-06-04 08:21:00,
2013-06-04 04:27:00,49.4,45.4,29.89,NW,324,0.0,0.0,86,0.00,CLR,,0.00,WeatherDisplay:10.37,2013-06-04 08:27:00,
2013-06-04 04:32:00,49.1,45.1,29.89,NW,324,0.0,0.0,86,0.00,CLR,,0.00,WeatherDisplay:10.37,2013-06-04 08:32:00,
2013-06-04 04:37:00,48.9,44.9,29.89,NW,325,0.0,0.0,86,0.00,CLR,,0.00,WeatherDisplay:10.37,2013-06-04 08:37:00,
2013-06-04 04:42:00,48.6,44.6,29.89,NW,324,0.0,0.0,86,0.00,CLR,,0.00,WeatherDisplay:10.37,2013-06-04 08:42:00,
2013-06-04 04:47:00,48.3,44.3,29.89,NW,324,0.0,0.0,86,0.00,CLR,,0.00,WeatherDisplay:10.37,2013-06-04 08:47:00,
2013-06-04 04:53:00,48.2,44.5,29.89,NW,325,0.0,0.0,87,0.00,CLR,,0.00,WeatherDisplay:10.37,2013-06-04 08:53:00,
2013-06-04 04:58:00,48.0,44.3,29.89,NW,324,0.0,0.0,87,0.00,CLR,,0.00,WeatherDisplay:10.37,2013-06-04 08:58:00,
2013-06-04 05:03:00,48.0,44.3,29.89,NW,324,0.0,0.0,87,0.00,CLR,,0.00,WeatherDisplay:10.37,2013-06-04 09:03:00,
2013-06-04 05:08:00,48.0,44.3,29.89,NW,325,0.0,0.0,87,0.00,CLR,,0.00,WeatherDisplay:10.37,2013-06-04 09:08:00,
2013-06-04 05:13:00,48.0,44.6,29.89,NW,325,0.0,0.0,88,0.00,CLR,,0.00,WeatherDisplay:10.37,2013-06-04 09:13:00,
2013-06-04 05:18:00,48.0,44.6,29.89,NW,325,0.0,0.0,88,0.00,CLR,,0.00,WeatherDisplay:10.37,2013-06-04 09:18:00,
2013-06-04 05:24:00,47.9,44.5,29.89,NW,325,0.0,0.0,88,0.00,CLR,,0.00,WeatherDisplay:10.37,2013-06-04 09:24:00,
2013-06-04 05:29:00,47.7,44.3,29.89,NW,324,0.0,0.0,88,0.00,CLR,,0.00,WeatherDisplay:10.37,2013-06-04 09:29:00,
2013-06-04 05:34:00,47.7,44.0,29.89,NW,325,0.0,0.0,87,0.00,CLR,,0.00,WeatherDisplay:10.37,2013-06-04 09:34:00,
2013-06-04 05:39:00,47.7,44.0,29.90,NW,325,0.0,0.0,87,0.00,CLR,,0.00,WeatherDisplay:10.37,2013-06-04 09:39:00,
2013-06-04 05:45:00,47.7,44.3,29.90,NW,325,0.0,0.0,88,0.00,CLR,,0.00,WeatherDisplay:10.37,2013-06-04 09:45:00,
2013-06-04 05:50:00,47.7,44.0,29.91,NW,325,0.0,0.0,87,0.00,CLR,,0.00,WeatherDisplay:10.37,2013-06-04 09:50:00,
2013-06-04 05:55:00,47.9,44.5,29.91,NW,324,0.0,0.0,88,0.00,CLR,,0.00,WeatherDisplay:10.37,2013-06-04 09:55:00,
2013-06-04 06:00:00,48.0,44.6,29.91,NW,325,0.0,1.1,88,0.00,CLR,,0.00,WeatherDisplay:10.37,2013-06-04 10:00:00,
2013-06-04 06:06:00,48.0,44.6,29.91,NW,325,0.0,0.0,88,0.00,CLR,,0.00,WeatherDisplay:10.37,2013-06-04 10:06:00,
2013-06-04 06:11:00,48.5,44.5,29.91,NW,325,0.0,1.1,86,0.00,CLR,,0.00,WeatherDisplay:10.37,2013-06-04 10:11:00,
2013-06-04 06:16:00,48.8,43.5,29.91,NNW,329,0.0,0.0,82,0.00,CLR,,0.00,WeatherDisplay:10.37,2013-06-04 10:16:00,
2013-06-04 06:21:00,49.5,43.3,29.91,NNW,332,0.2,2.3,79,0.00,CLR,,0.00,WeatherDisplay:10.37,2013-06-04 10:21:00,
2013-06-04 06:27:00,50.1,43.5,29.91,NNW,342,0.2,1.1,78,0.00,CLR,,0.00,WeatherDisplay:10.37,2013-06-04 10:27:00,
2013-06-04 06:32:00,50.4,43.1,29.91,North,11,0.8,1.1,76,0.00,CLR,,0.00,WeatherDisplay:10.37,2013-06-04 10:32:00,
2013-06-04 06:37:00,50.7,43.4,29.91,ENE,66,0.5,3.5,76,0.00,CLR,,0.00,WeatherDisplay:10.37,2013-06-04 10:37:00,
2013-06-04 06:42:00,51.0,43.4,29.91,NE,36,1.0,2.3,75,0.00,CLR,,0.00,WeatherDisplay:10.37,2013-06-04 10:42:00,
2013-06-04 06:48:00,51.3,43.6,29.91,ENE,66,1.6,3.5,75,0.00,CLR,,0.00,WeatherDisplay:10.37,2013-06-04 10:48:00,
2013-06-04 06:53:00,51.4,43.7,29.91,ENE,64,0.0,0.0,75,0.00,CLR,,0.00,WeatherDisplay:10.37,2013-06-04 10:53:00,
2013-06-04 06:58:00,51.6,43.6,29.91,NE,34,0.5,4.0,74,0.00,CLR,,0.00,WeatherDisplay:10.37,2013-06-04 10:58:00,
2013-06-04 07:03:00,51.7,43.3,29.91,NE,40,0.5,0.0,73,0.00,CLR,,0.00,WeatherDisplay:10.37,2013-06-04 11:03:00,
2013-06-04 07:08:00,52.0,44.0,29.91,NE,40,0.0,0.0,74,0.00,CLR,,0.00,WeatherDisplay:10.37,2013-06-04 11:08:00,
2013-06-04 07:13:00,52.2,44.5,29.92,NW,315,0.0,1.1,75,0.00,CLR,,0.00,WeatherDisplay:10.37,2013-06-04 11:13:00,
2013-06-04 07:19:00,52.5,44.4,29.92,NE,51,0.7,3.5,74,0.00,CLR,,0.00,WeatherDisplay:10.37,2013-06-04 11:19:00,
2013-06-04 07:24:00,53.1,43.9,29.92,North,351,0.9,5.8,71,0.00,CLR,,0.00,WeatherDisplay:10.37,2013-06-04 11:24:00,
2013-06-04 07:29:00,53.5,44.0,29.92,NW,311,1.7,4.0,70,0.00,CLR,,0.00,WeatherDisplay:10.37,2013-06-04 11:29:00,
2013-06-04 07:34:00,53.8,44.2,29.92,NE,50,1.0,3.0,70,0.00,CLR,,0.00,WeatherDisplay:10.37,2013-06-04 11:34:00,
2013-06-04 07:39:00,54.1,43.8,29.92,NW,304,0.4,2.3,68,0.00,CLR,,0.00,WeatherDisplay:10.37,2013-06-04 11:39:00,
2013-06-04 07:45:00,54.4,44.1,29.92,NE,45,0.9,3.5,68,0.00,CLR,,0.00,WeatherDisplay:10.37,2013-06-04 11:45:00,
2013-06-04 07:50:00,54.7,44.3,29.92,WNW,301,2.2,6.0,68,0.00,CLR,,0.00,WeatherDisplay:10.37,2013-06-04 11:50:00,
2013-06-04 07:55:00,55.0,44.2,29.91,SW,225,2.3,3.5,67,0.00,CLR,,0.00,WeatherDisplay:10.37,2013-06-04 11:55:00,
2013-06-04 08:00:00,55.3,44.5,29.91,NW,325,0.1,1.1,67,0.00,CLR,,0.00,WeatherDisplay:10.37,2013-06-04 12:00:00,
2013-06-04 08:05:00,55.6,44.8,29.92,NW,305,3.4,9.2,67,0.00,CLR,,0.00,WeatherDisplay:10.37,2013-06-04 12:05:00,
2013-06-04 08:10:00,55.9,43.5,29.92,NNE,17,5.6,12.7,63,0.00,CLR,,0.00,WeatherDisplay:10.37,2013-06-04 12:10:00,
2013-06-04 08:15:00,56.2,44.2,29.92,NE,42,2.2,15.0,64,0.00,CLR,,0.00,WeatherDisplay:10.37,2013-06-04 12:15:00,
2013-06-04 08:20:00,56.3,43.4,29.92,NNW,336,3.0,10.4,62,0.00,CLR,,0.00,WeatherDisplay:10.37,2013-06-04 12:20:00,
2013-06-04 08:26:00,56.5,44.5,29.92,NE,47,1.5,3.5,64,0.00,CLR,,0.00,WeatherDisplay:10.37,2013-06-04 12:26:00,
2013-06-04 08:31:00,56.7,43.8,29.92,NNW,330,2.8,4.6,62,0.00,CLR,,0.00,WeatherDisplay:10.37,2013-06-04 12:31:00,
2013-06-04 08:36:00,56.9,43.6,29.92,NE,34,5.7,11.5,61,0.00,CLR,,0.00,WeatherDisplay:10.37,2013-06-04 12:36:00,
2013-06-04 08:41:00,57.0,43.7,29.92,NNE,26,2.7,6.9,61,0.00,CLR,,0.00,WeatherDisplay:10.37,2013-06-04 12:41:00,
2013-06-04 08:46:00,57.3,44.0,29.92,NE,42,2.4,9.2,61,0.00,CLR,,0.00,WeatherDisplay:10.37,2013-06-04 12:46:00,
2013-06-04 08:51:00,57.5,43.7,29.92,WNW,294,1.8,3.5,60,0.00,CLR,,0.00,WeatherDisplay:10.37,2013-06-04 12:51:00,
2013-06-04 08:57:00,57.8,44.0,29.93,NW,326,0.7,4.0,60,0.00,CLR,,0.00,WeatherDisplay:10.37,2013-06-04 12:57:00,
2013-06-04 09:02:00,58.0,43.7,29.93,West,265,0.4,2.3,59,0.00,CLR,,0.00,WeatherDisplay:10.37,2013-06-04 13:02:00,
2013-06-04 09:07:00,58.1,43.4,29.93,North,349,1.7,4.6,58,0.00,CLR,,0.00,WeatherDisplay:10.37,2013-06-04 13:07:00,
2013-06-04 09:12:00,58.4,44.6,29.93,ENE,63,0.7,3.5,60,0.00,CLR,,0.00,WeatherDisplay:10.37,2013-06-04 13:12:00,
2013-06-04 09:18:00,58.9,45.5,29.94,West,262,1.9,3.5,61,0.00,CLR,,0.00,WeatherDisplay:10.37,2013-06-04 13:18:00,
2013-06-04 09:23:00,59.2,44.0,29.94,NW,315,2.9,3.5,57,0.00,CLR,,0.00,WeatherDisplay:10.37,2013-06-04 13:23:00,
2013-06-04 09:28:00,59.3,44.5,29.94,NNW,332,5.1,10.4,58,0.00,CLR,,0.00,WeatherDisplay:10.37,2013-06-04 13:28:00,
2013-06-04 09:33:00,59.6,44.8,29.95,NNE,26,1.2,7.0,58,0.00,CLR,,0.00,WeatherDisplay:10.37,2013-06-04 13:33:00,
2013-06-04 09:38:00,59.9,44.6,29.94,NNE,28,3.8,6.9,57,0.00,CLR,,0.00,WeatherDisplay:10.37,2013-06-04 13:38:00,
2013-06-04 09:43:00,60.4,44.6,29.94,West,275,0.4,3.5,56,0.00,CLR,,0.00,WeatherDisplay:10.37,2013-06-04 13:43:00,
2013-06-04 09:49:00,61.0,44.7,29.94,NE,40,1.4,5.0,55,0.00,CLR,,0.00,WeatherDisplay:10.37,2013-06-04 13:49:00,
2013-06-04 09:54:00,61.2,44.4,29.94,NE,38,0.9,2.3,54,0.00,CLR,,0.00,WeatherDisplay:10.37,2013-06-04 13:54:00,
2013-06-04 09:59:00,61.5,44.7,29.94,NW,310,2.6,11.5,54,0.00,CLR,,0.00,WeatherDisplay:10.37,2013-06-04 13:59:00,
2013-06-04 10:04:00,62.0,46.1,29.94,NW,315,4.1,5.8,56,0.00,CLR,,0.00,WeatherDisplay:10.37,2013-06-04 14:04:00,
2013-06-04 10:09:00,62.4,45.5,29.94,NE,36,3.4,4.0,54,0.00,CLR,,0.00,WeatherDisplay:10.37,2013-06-04 14:09:00,
2013-06-04 10:14:00,62.7,45.3,29.94,NNE,19,5.3,8.1,53,0.00,CLR,,0.00,WeatherDisplay:10.37,2013-06-04 14:14:00,
2013-06-04 10:20:00,62.7,45.8,29.94,NNE,33,4.8,9.2,54,0.00,CLR,,0.00,WeatherDisplay:10.37,2013-06-04 14:20:00,
2013-06-04 10:25:00,63.1,45.7,29.94,WNW,292,1.8,5.8,53,0.00,CLR,,0.00,WeatherDisplay:10.37,2013-06-04 14:25:00,
2013-06-04 10:30:00,63.7,46.2,29.95,WNW,289,3.1,5.0,53,0.00,CLR,,0.00,WeatherDisplay:10.37,2013-06-04 14:30:00,
2013-06-04 10:35:00,64.2,48.2,29.95,NNE,17,0.3,2.3,56,0.00,CLR,,0.00,WeatherDisplay:10.37,2013-06-04 14:35:00,
2013-06-04 10:40:00,64.3,46.3,29.95,East,81,1.2,3.5,52,0.00,CLR,,0.00,WeatherDisplay:10.37,2013-06-04 14:40:00,
2013-06-04 10:46:00,64.7,47.2,29.94,NNW,334,3.5,5.8,53,0.00,CLR,,0.00,WeatherDisplay:10.37,2013-06-04 14:46:00,
2013-06-04 10:51:00,65.2,48.1,29.95,WNW,287,1.5,5.8,54,0.00,CLR,,0.00,WeatherDisplay:10.37,2013-06-04 14:51:00,
2013-06-04 10:57:00,65.3,49.2,29.95,West,276,3.5,11.5,56,0.00,CLR,,0.00,WeatherDisplay:10.37,2013-06-04 14:57:00,
2013-06-04 11:02:00,65.8,50.1,29.94,WNW,287,2.9,5.8,57,0.00,CLR,,0.00,WeatherDisplay:10.37,2013-06-04 15:02:00,
2013-06-04 11:07:00,65.8,48.2,29.95,West,261,0.2,3.5,53,0.00,CLR,,0.00,WeatherDisplay:10.37,2013-06-04 15:07:00,
2013-06-04 11:12:00,66.1,46.4,29.95,West,279,2.4,5.8,49,0.00,CLR,,0.00,WeatherDisplay:10.37,2013-06-04 15:12:00,
2013-06-04 11:17:00,65.6,47.0,29.95,West,281,2.7,9.2,51,0.00,CLR,,0.00,WeatherDisplay:10.37,2013-06-04 15:17:00,
2013-06-04 11:23:00,65.8,45.6,29.95,NNW,328,1.7,4.6,48,0.00,CLR,,0.00,WeatherDisplay:10.37,2013-06-04 15:23:00,
2013-06-04 11:28:00,66.3,46.6,29.95,NNW,332,1.1,3.5,49,0.00,CLR,,0.00,WeatherDisplay:10.37,2013-06-04 15:28:00,
2013-06-04 11:33:00,66.6,47.9,29.95,NNE,25,2.8,3.5,51,0.00,CLR,,0.00,WeatherDisplay:10.37,2013-06-04 15:33:00,
2013-06-04 11:38:00,66.9,48.2,29.95,NNW,339,4.4,6.0,51,0.00,CLR,,0.00,WeatherDisplay:10.37,2013-06-04 15:38:00,
2013-06-04 11:43:00,66.8,47.0,29.95,NW,321,0.7,3.0,49,0.00,CLR,,0.00,WeatherDisplay:10.37,2013-06-04 15:43:00,
2013-06-04 11:48:00,66.9,49.7,29.95,NW,322,0.4,1.1,54,0.00,CLR,,0.00,WeatherDisplay:10.37,2013-06-04 15:48:00,
2013-06-04 11:53:00,67.6,49.3,29.95,NW,306,1.9,6.0,52,0.00,CLR,,0.00,WeatherDisplay:10.37,2013-06-04 15:53:00,
2013-06-04 11:59:00,67.9,46.3,29.95,North,9,3.2,4.6,46,0.00,CLR,,0.00,WeatherDisplay:10.37,2013-06-04 15:59:00,
2013-06-04 12:04:00,68.1,45.9,29.95,NW,319,3.3,5.0,45,0.00,CLR,,0.00,WeatherDisplay:10.37,2013-06-04 16:04:00,
2013-06-04 12:09:00,68.3,47.8,29.95,NW,317,2.1,4.6,48,0.00,CLR,,0.00,WeatherDisplay:10.37,2013-06-04 16:09:00,
2013-06-04 12:14:00,68.4,47.9,29.95,NNW,340,0.3,2.3,48,0.00,CLR,,0.00,WeatherDisplay:10.37,2013-06-04 16:14:00,
2013-06-04 12:20:00,68.8,49.4,29.95,SW,214,2.0,3.5,50,0.00,CLR,,0.00,WeatherDisplay:10.37,2013-06-04 16:20:00,
2013-06-04 12:25:00,68.9,49.5,29.94,WNW,290,2.1,4.6,50,0.00,CLR,,0.00,WeatherDisplay:10.37,2013-06-04 16:25:00,
2013-06-04 12:30:00,68.6,48.1,29.94,NNW,345,1.4,5.0,48,0.00,CLR,,0.00,WeatherDisplay:10.37,2013-06-04 16:30:00,
2013-06-04 12:35:00,68.9,48.9,29.94,WNW,298,4.0,6.9,49,0.00,CLR,,0.00,WeatherDisplay:10.37,2013-06-04 16:35:00,
2013-06-04 12:40:00,68.9,47.8,29.94,North,350,0.3,1.1,47,0.00,CLR,,0.00,WeatherDisplay:10.37,2013-06-04 16:40:00,
2013-06-04 12:45:00,69.4,49.4,29.94,WNW,300,2.3,4.0,49,0.00,CLR,,0.00,WeatherDisplay:10.37,2013-06-04 16:45:00,
2013-06-04 12:51:00,69.6,48.5,29.93,WNW,288,0.7,3.5,47,0.00,CLR,,0.00,WeatherDisplay:10.37,2013-06-04 16:51:00,
2013-06-04 12:56:00,70.1,47.8,29.93,WNW,302,2.9,3.5,45,0.00,CLR,,0.00,WeatherDisplay:10.37,2013-06-04 16:56:00,
2013-06-04 13:01:00,70.3,45.5,29.93,WNW,295,6.6,10.4,41,0.00,CLR,,0.00,WeatherDisplay:10.37,2013-06-04 17:01:00,
2013-06-04 13:06:00,70.1,45.9,29.93,NNE,28,2.5,2.5,42,0.00,CLR,,0.00,WeatherDisplay:10.37,2013-06-04 17:06:00,
2013-06-04 13:11:00,69.8,46.3,29.93,NE,35,3.4,8.1,43,0.00,CLR,,0.00,WeatherDisplay:10.37,2013-06-04 17:11:00,
2013-06-04 13:17:00,70.3,47.3,29.93,NW,321,5.0,10.4,44,0.00,CLR,,0.00,WeatherDisplay:10.37,2013-06-04 17:17:00,
2013-06-04 13:22:00,70.4,44.9,29.93,West,278,4.7,11.5,40,0.00,CLR,,0.00,WeatherDisplay:10.37,2013-06-04 17:22:00,
2013-06-04 13:27:00,70.6,48.2,29.92,NNW,327,2.6,6.0,45,0.00,CLR,,0.00,WeatherDisplay:10.37,2013-06-04 17:27:00,
2013-06-04 13:32:00,71.1,46.2,29.93,NNW,327,4.9,12.7,41,0.00,CLR,,0.00,WeatherDisplay:10.37,2013-06-04 17:32:00,
2013-06-04 13:37:00,71.3,45.7,29.92,WNW,282,1.0,4.6,40,0.00,CLR,,0.00,WeatherDisplay:10.37,2013-06-04 17:37:00,
2013-06-04 13:42:00,71.5,45.9,29.92,WNW,290,3.4,11.5,40,0.00,CLR,,0.00,WeatherDisplay:10.37,2013-06-04 17:42:00,
2013-06-04 13:48:00,71.5,46.6,29.92,WNW,297,4.1,9.2,41,0.00,CLR,,0.00,WeatherDisplay:10.37,2013-06-04 17:48:00,
2013-06-04 13:53:00,72.1,47.7,29.92,NNE,29,2.2,10.4,42,0.00,CLR,,0.00,WeatherDisplay:10.37,2013-06-04 17:53:00,
2013-06-04 13:58:00,72.5,48.7,29.92,WNW,288,2.8,4.6,43,0.00,CLR,,0.00,WeatherDisplay:10.37,2013-06-04 17:58:00,
2013-06-04 14:03:00,72.5,47.5,29.92,NW,311,1.6,3.5,41,0.00,CLR,,0.00,WeatherDisplay:10.37,2013-06-04 18:03:00,
2013-06-04 14:08:00,72.0,45.7,29.92,NNE,32,2.5,5.8,39,0.00,CLR,,0.00,WeatherDisplay:10.37,2013-06-04 18:08:00,
2013-06-04 14:13:00,72.1,46.4,29.92,NW,315,6.3,9.2,40,0.00,CLR,,0.00,WeatherDisplay:10.37,2013-06-04 18:13:00,
2013-06-04 14:19:00,72.0,48.3,29.92,NW,305,6.6,11.5,43,0.00,CLR,,0.00,WeatherDisplay:10.37,2013-06-04 18:19:00,
2013-06-04 14:24:00,72.5,47.5,29.92,NNW,329,2.5,8.1,41,0.00,CLR,,0.00,WeatherDisplay:10.37,2013-06-04 18:24:00,
2013-06-04 14:29:00,72.7,46.3,29.92,WNW,294,3.1,5.8,39,0.00,CLR,,0.00,WeatherDisplay:10.37,2013-06-04 18:29:00,
2013-06-04 14:34:00,73.3,46.8,29.92,WNW,297,1.0,3.0,39,0.00,CLR,,0.00,WeatherDisplay:10.37,2013-06-04 18:34:00,
2013-06-04 14:40:00,73.9,46.0,29.92,WNW,293,0.9,9.2,37,0.00,CLR,,0.00,WeatherDisplay:10.37,2013-06-04 18:40:00,
2013-06-04 14:45:00,74.0,46.1,29.92,SW,223,1.6,5.8,37,0.00,CLR,,0.00,WeatherDisplay:10.37,2013-06-04 18:45:00,
2013-06-04 14:50:00,73.5,46.3,29.92,NNW,333,3.9,11.5,38,0.00,CLR,,0.00,WeatherDisplay:10.37,2013-06-04 18:50:00,
2013-06-04 14:55:00,73.9,47.4,29.92,WNW,297,0.1,1.1,39,0.00,CLR,,0.00,WeatherDisplay:10.37,2013-06-04 18:55:00,
2013-06-04 15:00:00,73.7,45.8,29.92,NNE,33,2.7,3.5,37,0.00,CLR,,0.00,WeatherDisplay:10.37,2013-06-04 19:00:00,
2013-06-04 15:06:00,73.5,47.7,29.92,WNW,294,1.7,10.4,40,0.00,CLR,,0.00,WeatherDisplay:10.37,2013-06-04 19:06:00,
2013-06-04 15:11:00,73.9,46.7,29.92,West,275,2.4,3.5,38,0.00,CLR,,0.00,WeatherDisplay:10.37,2013-06-04 19:11:00,
2013-06-04 15:16:00,73.9,46.0,29.92,NE,44,2.6,4.6,37,0.00,CLR,,0.00,WeatherDisplay:10.37,2013-06-04 19:16:00,
2013-06-04 15:21:00,72.8,45.0,29.92,ENE,65,3.3,5.0,37,0.00,CLR,,0.00,WeatherDisplay:10.37,2013-06-04 19:21:00,
2013-06-04 15:26:00,72.8,44.3,29.92,ENE,61,1.5,3.5,36,0.00,CLR,,0.00,WeatherDisplay:10.37,2013-06-04 19:26:00,
2013-06-04 15:31:00,72.8,45.7,29.92,NE,36,2.3,3.5,38,0.00,CLR,,0.00,WeatherDisplay:10.37,2013-06-04 19:31:00,
2013-06-04 15:37:00,72.7,45.6,29.92,NE,36,5.0,10.4,38,0.00,CLR,,0.00,WeatherDisplay:10.37,2013-06-04 19:37:00,
2013-06-04 15:42:00,72.7,45.6,29.92,NE,49,0.9,3.5,38,0.00,CLR,,0.00,WeatherDisplay:10.37,2013-06-04 19:42:00,
2013-06-04 15:47:00,72.8,45.7,29.92,NNE,32,2.5,7.0,38,0.00,CLR,,0.00,WeatherDisplay:10.37,2013-06-04 19:47:00,
2013-06-04 15:52:00,72.7,44.2,29.92,ENE,68,4.5,10.4,36,0.00,CLR,,0.00,WeatherDisplay:10.37,2013-06-04 19:52:00,
2013-06-04 15:57:00,72.8,45.0,29.92,NW,311,2.9,6.0,37,0.00,CLR,,0.00,WeatherDisplay:10.37,2013-06-04 19:57:00,
2013-06-04 16:02:00,72.7,43.5,29.92,NNE,25,2.0,4.6,35,0.00,CLR,,0.00,WeatherDisplay:10.37,2013-06-04 20:02:00,
2013-06-04 16:08:00,73.0,45.2,29.92,West,270,0.7,3.0,37,0.00,CLR,,0.00,WeatherDisplay:10.37,2013-06-04 20:08:00,
2013-06-04 16:13:00,73.2,46.1,29.92,North,350,3.4,6.9,38,0.00,CLR,,0.00,WeatherDisplay:10.37,2013-06-04 20:13:00,
2013-06-04 16:18:00,72.8,43.5,29.92,NE,56,5.7,11.5,35,0.00,CLR,,0.00,WeatherDisplay:10.37,2013-06-04 20:18:00,
2013-06-04 16:23:00,73.2,48.1,29.92,NW,309,2.1,6.9,41,0.00,CLR,,0.00,WeatherDisplay:10.37,2013-06-04 20:23:00,
2013-06-04 16:28:00,73.2,44.6,29.92,NE,40,1.2,3.0,36,0.00,CLR,,0.00,WeatherDisplay:10.37,2013-06-04 20:28:00,
2013-06-04 16:34:00,73.3,44.7,29.91,ENE,65,1.6,4.6,36,0.00,CLR,,0.00,WeatherDisplay:10.37,2013-06-04 20:34:00,
2013-06-04 16:39:00,73.0,44.5,29.92,NE,46,1.9,4.6,36,0.00,CLR,,0.00,WeatherDisplay:10.37,2013-06-04 20:39:00,
2013-06-04 16:44:00,73.0,43.7,29.92,NNE,13,3.0,5.8,35,0.00,CLR,,0.00,WeatherDisplay:10.37,2013-06-04 20:44:00,
2013-06-04 16:49:00,73.0,45.2,29.92,ENE,57,1.5,3.5,37,0.00,CLR,,0.00,WeatherDisplay:10.37,2013-06-04 20:49:00,
2013-06-04 16:54:00,73.2,44.6,29.92,NE,41,3.0,9.2,36,0.00,CLR,,0.00,WeatherDisplay:10.37,2013-06-04 20:54:00,
2013-06-04 16:59:00,73.0,43.0,29.92,North,355,0.1,3.5,34,0.00,CLR,,0.00,WeatherDisplay:10.37,2013-06-04 20:59:00,
2013-06-04 17:04:00,72.8,43.5,29.92,NW,307,1.4,3.5,35,0.00,CLR,,0.00,WeatherDisplay:10.37,2013-06-04 21:04:00,
2013-06-04 17:10:00,72.5,44.0,29.92,WSW,256,2.0,3.5,36,0.00,CLR,,0.00,WeatherDisplay:10.37,2013-06-04 21:10:00,
2013-06-04 17:15:00,72.7,44.2,29.92,NW,311,2.2,5.8,36,0.00,CLR,,0.00,WeatherDisplay:10.37,2013-06-04 21:15:00,
2013-06-04 17:20:00,72.7,43.5,29.92,NNE,26,2.1,3.5,35,0.00,CLR,,0.00,WeatherDisplay:10.37,2013-06-04 21:20:00,
2013-06-04 17:25:00,72.3,43.1,29.92,NNE,33,2.4,5.8,35,0.00,CLR,,0.00,WeatherDisplay:10.37,2013-06-04 21:25:00,
2013-06-04 17:30:00,72.0,43.6,29.92,NNE,32,2.2,4.6,36,0.00,CLR,,0.00,WeatherDisplay:10.37,2013-06-04 21:30:00,
2013-06-04 17:35:00,72.1,45.8,29.93,NW,311,0.0,0.0,39,0.00,CLR,,0.00,WeatherDisplay:10.37,2013-06-04 21:35:00,
2013-06-04 17:40:00,72.3,43.8,29.93,NW,309,2.4,4.0,36,0.00,CLR,,0.00,WeatherDisplay:10.37,2013-06-04 21:40:00,
2013-06-04 17:46:00,72.5,44.0,29.92,NNW,334,1.4,3.5,36,0.00,CLR,,0.00,WeatherDisplay:10.37,2013-06-04 21:46:00,
2013-06-04 17:51:00,72.3,43.8,29.93,NNE,31,1.7,6.9,36,0.00,CLR,,0.00,WeatherDisplay:10.37,2013-06-04 21:51:00,
2013-06-04 17:56:00,72.3,46.6,29.94,WNW,292,0.1,2.3,40,0.00,CLR,,0.00,WeatherDisplay:10.37,2013-06-04 21:56:00,
2013-06-04 18:01:00,72.1,44.4,29.94,NW,307,1.2,4.0,37,0.00,CLR,,0.00,WeatherDisplay:10.37,2013-06-04 22:01:00,
2013-06-04 18:07:00,72.0,42.8,29.94,NE,43,0.6,3.5,35,0.00,CLR,,0.00,WeatherDisplay:10.37,2013-06-04 22:07:00,
2013-06-04 18:12:00,71.8,44.1,29.94,NNW,337,0.3,2.0,37,0.00,CLR,,0.00,WeatherDisplay:10.37,2013-06-04 22:12:00,
2013-06-04 18:17:00,72.0,45.0,29.94,North,360,0.1,1.1,38,0.00,CLR,,0.00,WeatherDisplay:10.37,2013-06-04 22:17:00,
2013-06-04 18:22:00,72.0,45.0,29.94,North,350,0.2,2.0,38,0.00,CLR,,0.00,WeatherDisplay:10.37,2013-06-04 22:22:00,
2013-06-04 18:27:00,71.8,44.1,29.94,NE,36,2.1,5.0,37,0.00,CLR,,0.00,WeatherDisplay:10.37,2013-06-04 22:27:00,
2013-06-04 18:32:00,71.6,46.0,29.94,NNE,31,0.2,1.1,40,0.00,CLR,,0.00,WeatherDisplay:10.37,2013-06-04 22:32:00,
2013-06-04 18:38:00,71.5,43.8,29.94,NE,40,0.8,2.0,37,0.00,CLR,,0.00,WeatherDisplay:10.37,2013-06-04 22:38:00,
2013-06-04 18:43:00,71.3,45.1,29.94,NW,325,3.4,4.6,39,0.00,CLR,,0.00,WeatherDisplay:10.37,2013-06-04 22:43:00,
2013-06-04 18:48:00,71.3,45.7,29.95,NNE,23,0.6,2.0,40,0.00,CLR,,0.00,WeatherDisplay:10.37,2013-06-04 22:48:00,
2013-06-04 18:53:00,70.9,44.7,29.95,NNE,22,0.4,2.3,39,0.00,CLR,,0.00,WeatherDisplay:10.37,2013-06-04 22:53:00,
2013-06-04 18:59:00,70.8,43.9,29.95,NE,46,2.9,3.5,38,0.00,CLR,,0.00,WeatherDisplay:10.37,2013-06-04 22:59:00,
2013-06-04 19:04:00,70.4,44.3,29.95,NE,36,0.7,3.5,39,0.00,CLR,,0.00,WeatherDisplay:10.37,2013-06-04 23:04:00,
2013-06-04 19:09:00,70.3,44.2,29.94,ENE,58,2.0,3.5,39,0.00,CLR,,0.00,WeatherDisplay:10.37,2013-06-04 23:09:00,
2013-06-04 19:14:00,69.9,44.5,29.95,NNE,32,0.0,0.0,40,0.00,CLR,,0.00,WeatherDisplay:10.37,2013-06-04 23:14:00,
2013-06-04 19:19:00,69.8,44.4,29.95,NNE,18,0.2,3.5,40,0.00,CLR,,0.00,WeatherDisplay:10.37,2013-06-04 23:19:00,
2013-06-04 19:25:00,69.6,44.8,29.95,NNE,17,0.4,2.3,41,0.00,CLR,,0.00,WeatherDisplay:10.37,2013-06-04 23:25:00,
2013-06-04 19:30:00,69.3,44.6,29.95,NNE,18,0.3,1.1,41,0.00,CLR,,0.00,WeatherDisplay:10.37,2013-06-04 23:30:00,
2013-06-04 19:35:00,69.1,44.4,29.95,NNE,29,0.1,1.1,41,0.00,CLR,,0.00,WeatherDisplay:10.37,2013-06-04 23:35:00,
2013-06-04 19:40:00,68.9,44.9,29.96,NE,37,0.5,1.1,42,0.00,CLR,,0.00,WeatherDisplay:10.37,2013-06-04 23:40:00,
2013-06-04 19:46:00,68.6,45.8,29.96,NE,36,0.7,2.3,44,0.00,CLR,,0.00,WeatherDisplay:10.37,2013-06-04 23:46:00,
2013-06-04 19:51:00,68.3,46.1,29.96,NE,45,0.0,1.1,45,0.00,CLR,,0.00,WeatherDisplay:10.37,2013-06-04 23:51:00,
2013-06-04 19:56:00,67.9,46.3,29.97,NE,45,0.4,2.0,46,0.00,CLR,,0.00,WeatherDisplay:10.37,2013-06-04 23:56:00,
2013-06-04 20:01:00,67.6,45.5,29.97,NE,45,0.5,2.3,45,0.00,CLR,,0.00,WeatherDisplay:10.37,2013-06-05 00:01:00,
2013-06-04 20:07:00,67.3,45.8,29.97,NE,45,0.0,0.0,46,0.00,CLR,,0.00,WeatherDisplay:10.37,2013-06-05 00:07:00,
2013-06-04 20:12:00,66.9,47.1,29.97,NE,45,0.0,0.0,49,0.00,CLR,,0.00,WeatherDisplay:10.37,2013-06-05 00:12:00,
2013-06-04 20:17:00,66.1,46.9,29.97,NE,45,0.0,0.0,50,0.00,CLR,,0.00,WeatherDisplay:10.37,2013-06-05 00:17:00,
2013-06-04 20:22:00,65.3,47.2,29.97,NE,45,0.0,0.0,52,0.00,CLR,,0.00,WeatherDisplay:10.37,2013-06-05 00:22:00,
2013-06-04 20:27:00,64.7,47.7,29.97,NE,45,0.0,0.0,54,0.00,CLR,,0.00,WeatherDisplay:10.37,2013-06-05 00:27:00,
2013-06-04 20:32:00,64.2,48.2,29.97,NE,45,0.1,2.3,56,0.00,CLR,,0.00,WeatherDisplay:10.37,2013-06-05 00:32:00,
2013-06-04 20:38:00,63.9,48.4,29.98,NE,45,0.0,0.0,57,0.00,CLR,,0.00,WeatherDisplay:10.37,2013-06-05 00:38:00,
2013-06-04 20:43:00,63.4,47.9,29.98,NE,45,0.0,0.0,57,0.00,CLR,,0.00,WeatherDisplay:10.37,2013-06-05 00:43:00,
2013-06-04 20:48:00,62.6,47.1,29.98,NE,45,0.0,0.0,57,0.00,CLR,,0.00,WeatherDisplay:10.37,2013-06-05 00:48:00,
2013-06-04 20:53:00,61.8,47.8,29.99,NE,45,0.0,0.0,60,0.00,CLR,,0.00,WeatherDisplay:10.37,2013-06-05 00:53:00,
2013-06-04 20:58:00,61.2,49.3,29.99,NE,45,0.0,0.0,65,0.00,CLR,,0.00,WeatherDisplay:10.37,2013-06-05 00:58:00,
2013-06-04 21:03:00,60.7,47.6,29.99,NE,45,0.0,0.0,62,0.00,CLR,,0.00,WeatherDisplay:10.37,2013-06-05 01:03:00,
2013-06-04 21:08:00,60.2,49.2,30.00,NE,45,0.0,0.0,67,0.00,CLR,,0.00,WeatherDisplay:10.37,2013-06-05 01:08:00,
2013-06-04 21:13:00,59.6,49.8,30.00,NE,45,0.0,0.0,70,0.00,CLR,,0.00,WeatherDisplay:10.37,2013-06-05 01:13:00,
2013-06-04 21:19:00,59.2,50.2,30.00,NE,45,0.0,0.0,72,0.00,CLR,,0.00,WeatherDisplay:10.37,2013-06-05 01:19:00,
2013-06-04 21:24:00,58.9,49.9,30.00,NE,45,0.0,0.0,72,0.00,CLR,,0.00,WeatherDisplay:10.37,2013-06-05 01:24:00,
2013-06-04 21:29:00,58.4,50.1,30.00,NE,45,0.0,0.0,74,0.00,CLR,,0.00,WeatherDisplay:10.37,2013-06-05 01:29:00,
2013-06-04 21:34:00,58.1,49.9,30.01,NE,45,0.0,0.0,74,0.00,CLR,,0.00,WeatherDisplay:10.37,2013-06-05 01:34:00,
2013-06-04 21:39:00,57.5,50.3,30.01,NE,45,0.0,0.0,77,0.00,CLR,,0.00,WeatherDisplay:10.37,2013-06-05 01:39:00,
2013-06-04 21:44:00,57.0,50.2,30.02,NE,45,0.0,0.0,78,0.00,CLR,,0.00,WeatherDisplay:10.37,2013-06-05 01:44:00,
2013-06-04 21:50:00,56.6,50.5,30.02,NE,45,0.0,0.0,80,0.00,CLR,,0.00,WeatherDisplay:10.37,2013-06-05 01:50:00,
2013-06-04 21:55:00,56.2,50.8,30.02,NE,45,0.0,0.0,82,0.00,CLR,,0.00,WeatherDisplay:10.37,2013-06-05 01:55:00,
2013-06-04 22:00:00,55.9,50.5,30.03,NE,45,0.0,0.0,82,0.00,CLR,,0.00,WeatherDisplay:10.37,2013-06-05 02:00:00,
2013-06-04 22:05:00,55.7,50.3,30.03,NE,45,0.0,0.0,82,0.00,CLR,,0.00,WeatherDisplay:10.37,2013-06-05 02:05:00,
2013-06-04 22:10:00,55.4,50.3,30.03,NE,45,0.0,0.0,83,0.00,CLR,,0.00,WeatherDisplay:10.37,2013-06-05 02:10:00,
2013-06-04 22:15:00,55.1,50.0,30.03,NE,45,0.0,0.0,83,0.00,CLR,,0.00,WeatherDisplay:10.37,2013-06-05 02:15:00,
2013-06-04 22:21:00,55.0,50.6,30.03,NE,45,0.0,0.0,85,0.00,CLR,,0.00,WeatherDisplay:10.37,2013-06-05 02:21:00,
2013-06-04 22:26:00,54.7,50.6,30.03,NE,45,0.0,0.0,86,0.00,CLR,,0.00,WeatherDisplay:10.37,2013-06-05 02:26:00,
2013-06-04 22:31:00,54.4,50.9,30.04,NE,45,0.0,0.0,88,0.00,CLR,,0.00,WeatherDisplay:10.37,2013-06-05 02:31:00,
2013-06-04 22:37:00,54.2,51.0,30.04,NE,45,0.0,0.0,89,0.00,CLR,,0.00,WeatherDisplay:10.37,2013-06-05 02:37:00,
2013-06-04 22:42:00,53.9,51.0,30.05,NE,45,0.0,0.0,90,0.00,CLR,,0.00,WeatherDisplay:10.37,2013-06-05 02:42:00,
2013-06-04 22:47:00,53.8,51.2,30.05,NE,45,0.0,0.0,91,0.00,CLR,,0.00,WeatherDisplay:10.37,2013-06-05 02:47:00,
2013-06-04 22:52:00,53.6,51.0,30.05,NE,45,0.0,0.0,91,0.00,CLR,,0.00,WeatherDisplay:10.37,2013-06-05 02:52:00,
2013-06-04 22:57:00,53.3,51.0,30.05,NE,45,0.0,0.0,92,0.00,CLR,,0.00,WeatherDisplay:10.37,2013-06-05 02:57:00,
2013-06-04 23:03:00,52.9,50.6,30.05,NE,45,0.0,0.0,92,0.00,CLR,,0.00,WeatherDisplay:10.37,2013-06-05 03:03:00,
2013-06-04 23:08:00,52.9,50.9,30.05,NE,45,0.0,0.0,93,0.00,CLR,,0.00,WeatherDisplay:10.37,2013-06-05 03:08:00,
2013-06-04 23:13:00,52.6,50.6,30.05,NE,45,0.0,0.0,93,0.00,CLR,,0.00,WeatherDisplay:10.37,2013-06-05 03:13:00,
2013-06-04 23:18:00,52.2,50.2,30.05,NE,45,0.0,0.0,93,0.00,CLR,,0.00,WeatherDisplay:10.37,2013-06-05 03:18:00,
2013-06-04 23:24:00,52.0,50.3,30.05,NE,45,0.0,0.0,94,0.00,CLR,,0.00,WeatherDisplay:10.37,2013-06-05 03:24:00,
2013-06-04 23:29:00,52.0,50.3,30.05,NE,45,0.0,0.0,94,0.00,CLR,,0.00,WeatherDisplay:10.37,2013-06-05 03:29:00,
2013-06-04 23:34:00,51.6,49.9,30.06,NE,45,0.0,0.0,94,0.00,CLR,,0.00,WeatherDisplay:10.37,2013-06-05 03:34:00,
2013-06-04 23:40:00,51.4,50.0,30.06,NE,45,0.0,0.0,95,0.00,CLR,,0.00,WeatherDisplay:10.37,2013-06-05 03:40:00,
2013-06-04 23:45:00,51.4,50.0,30.06,NE,45,0.0,0.0,95,0.00,CLR,,0.00,WeatherDisplay:10.37,2013-06-05 03:45:00,
2013-06-04 23:50:00,51.3,49.6,30.06,NE,45,0.0,0.0,94,0.00,CLR,,0.00,WeatherDisplay:10.37,2013-06-05 03:50:00,
2013-06-04 23:55:00,51.1,49.7,30.06,NE,45,0.0,0.0,95,0.00,CLR,,0.00,WeatherDisplay:10.37,2013-06-05 03:55:00,